Lava Hot Springs, Idaho
Current Conditions -  °F | °C
As of 6:53 AM on Sunday 25 Jan 2015 (Local Time) from KPIH Reporting Station
Haze Haze  
Wind Chill: 25°   Ceiling: 2000
Heat Index: 30°   Visibility: 6mi
Dew Point: 29°   Wind: 5mph
Humidity: 96%   Direction: 20°NNE
Pressure: 30.44"   Gusts: NA
Location:  42.62°N, 112.01°W
Report Text: KPIH 251353Z 02004KT 6SM BR SCT005 OVC020 M01/M02 A3044 RMK AO2 SLP334 T10111017
Loading
Personal Weather Stations






























Interactive Weather Map New forecast layout! Learn more

10-Day Weather Forecast

Advertisements
Track Severe Weather on mobile